Date,TemperatureHighF,TemperatureAvgF,TemperatureLowF,DewpointHighF,DewpointAvgF,DewpointLowF,HumidityHigh,HumidityAvg,HumidityLow,PressureMaxIn,PressureMinIn,WindSpeedMaxMPH,WindSpeedAvgMPH,GustSpeedMaxMPH,PrecipitationSumIn
2013-1-1,37,32,21,27,19,10,74,60,46,29.94,29.76,6,2,19,0.00
2013-1-2,32,21,11,14,9,3,77,60,46,30.11,29.91,6,1,18,0.00
2013-1-3,25,15,5,12,1,-5,78,54,27,30.16,30.02,3,1,10,0.00
2013-1-4,39,27,13,24,17,7,82,67,47,30.02,29.85,4,1,17,0.05
2013-1-5,42,32,21,24,20,15,80,63,42,30.27,29.88,6,1,19,0.06
2013-1-6,42,31,22,31,22,14,81,70,58,30.24,29.94,3,0,12,0.07
2013-1-7,41,32,21,29,21,10,80,67,46,30.41,29.98,7,1,19,0.01
2013-1-8,47,33,18,31,22,8,80,64,51,30.39,30.29,4,1,14,0.01
2013-1-9,44,35,20,37,25,9,80,68,59,30.41,30.02,4,1,12,0.00
2013-1-10,46,40,29,32,24,21,74,54,40,30.53,30.08,8,2,23,0.00
2013-1-11,40,32,23,30,23,16,80,69,56,30.53,30.21,1,0,5,0.20
2013-1-12,44,41,38,30,26,23,58,56,54,30.23,30.12,1,0,4,0.05
2013-1-13,70,49,0,53,39,27,97,71,41,30.17,30.02,3,0,9,0.02
2013-1-14,61,52,40,54,44,29,97,78,44,30.26,29.92,4,1,12,0.02
2013-1-15,41,37,34,36,31,27,95,80,61,30.31,30.22,4,0,9,0.10
2013-1-16,35,33,32,33,31,27,97,93,73,30.25,29.80,2,0,8,0.24
2013-1-17,43,36,30,33,28,20,97,76,51,30.08,29.86,5,1,12,0.29
2013-1-18,32,23,13,21,4,-5,80,46,27,30.49,30.03,7,2,16,0.00
2013-1-19,48,38,14,34,26,9,84,65,44,30.43,29.93,7,2,22,0.06
2013-1-20,55,44,29,36,28,8,76,54,32,29.94,29.58,7,3,21,0.00
2013-1-21,30,26,18,22,12,5,91,58,38,30.12,29.79,3,0,11,0.00
2013-1-22,25,20,12,22,7,-5,92,59,31,30.09,29.76,5,1,16,0.00
2013-1-23,16,11,5,1,-6,-10,61,46,34,30.17,30.08,4,1,13,0.00
2013-1-24,19,10,-1,-6,-8,-10,69,44,29,30.24,30.08,4,1,14,0.00
2013-1-25,25,16,5,13,-4,-10,79,43,25,30.33,30.06,2,0,9,0.00
2013-1-26,25,17,8,13,4,-8,90,59,29,30.25,30.00,5,1,13,0.00
2013-1-27,30,20,10,4,2,-1,65,46,28,30.48,30.24,5,1,16,0.00
2013-1-28,33,24,13,29,15,1,95,71,35,30.47,30.01,2,0,7,0.00
2013-1-29,34,32,29,33,30,27,97,94,92,30.20,30.00,2,0,7,0.19
2013-1-30,58,49,33,56,48,33,98,95,91,30.17,29.51,7,3,23,0.17
2013-1-31,61,49,31,59,37,13,96,67,34,29.63,29.03,10,5,33,0.82
2013-2-1,33,28,22,15,9,4,54,44,32,30.11,29.63,5,2,15,0.00
2013-2-2,30,24,15,16,9,4,70,52,39,30.27,30.06,3,1,14,0.00
2013-2-3,32,26,19,22,20,14,91,78,61,30.07,29.74,4,1,10,0.00
2013-2-4,31,24,17,21,11,6,91,59,36,29.97,29.74,6,1,18,0.00
2013-2-5,26,24,22,23,16,10,91,74,58,30.04,29.93,1,0,5,0.00
2013-2-6,40,31,25,28,19,3,93,65,36,30.30,29.92,6,1,17,0.03
2013-2-7,31,24,15,14,6,2,74,48,31,30.54,30.31,5,1,12,0.00
2013-2-8,32,29,21,31,26,14,97,89,71,30.49,29.44,5,2,15,0.00
2013-2-9,24,20,15,23,16,6,95,84,66,30.19,29.43,4,1,12,0.00
2013-2-10,38,21,6,21,9,1,94,64,28,30.40,30.19,2,0,7,0.00
2013-2-11,46,33,12,45,32,10,98,94,90,30.37,29.61,5,1,15,0.73
2013-2-12,46,39,29,42,30,24,98,70,47,29.91,29.62,7,2,23,0.00
2013-2-13,44,33,23,27,24,19,88,71,46,29.90,29.68,3,0,9,0.00
2013-2-14,45,34,26,30,24,19,95,71,37,30.02,29.71,5,1,12,0.05
2013-2-15,48,37,24,37,32,23,97,84,60,30.04,29.94,6,2,18,0.00
2013-2-16,35,33,31,32,31,22,97,91,70,29.96,29.66,7,2,17,0.02
2013-2-17,31,23,17,24,12,0,91,66,34,29.71,29.38,8,4,23,0.00
2013-2-18,31,23,15,3,0,-3,52,39,23,30.18,29.71,8,2,19,0.00
2013-2-19,48,37,20,44,27,3,97,70,41,30.19,29.60,5,1,16,0.55
2013-2-20,43,33,26,42,20,9,97,62,39,29.81,29.56,7,3,22,0.00
2013-2-21,34,28,25,16,14,12,64,54,41,30.17,29.81,6,3,19,0.00
2013-2-22,38,31,26,26,22,16,83,68,57,30.38,30.18,6,2,13,0.00
2013-2-23,40,34,30,34,29,25,96,83,68,30.33,29.88,3,1,10,0.37
2013-2-24,40,36,31,39,35,30,97,95,92,29.88,29.65,9,4,22,0.44
2013-2-25,41,35,29,32,30,25,97,82,60,30.25,29.88,6,1,13,0.07
2013-2-26,47,37,28,34,29,24,96,74,41,30.35,30.14,3,1,10,0.00
2013-2-27,44,41,36,42,40,32,97,95,82,30.14,29.56,5,2,18,1.25
2013-2-28,46,39,34,41,36,33,97,91,76,29.66,29.52,2,0,6,0.01
2013-3-1,44,38,32,35,31,27,97,75,55,29.69,29.53,7,2,20,0.00
2013-3-2,43,38,34,30,27,26,74,65,53,29.69,29.63,4,1,12,0.00
2013-3-3,45,37,32,30,27,25,89,69,49,29.65,29.56,3,1,14,0.00
2013-3-4,41,35,29,28,23,20,87,63,49,29.74,29.59,7,4,19,0.00
2013-3-5,45,37,29,32,27,22,94,69,54,30.06,29.74,7,2,17,0.00
2013-3-6,42,36,29,36,33,27,96,89,71,30.08,29.98,10,4,29,0.11
2013-3-7,35,33,31,33,32,30,97,95,89,29.98,29.93,13,8,29,0.37
2013-3-8,38,32,30,34,30,26,98,92,64,30.11,29.90,11,7,24,0.04
2013-3-9,42,36,28,31,28,24,96,73,57,30.34,30.10,10,4,22,0.07
2013-3-10,47,36,28,33,30,26,96,81,56,30.41,30.33,3,1,11,0.00
2013-3-11,51,42,34,42,37,32,93,85,68,30.34,30.17,4,1,14,0.00
2013-3-12,57,50,38,54,48,37,98,93,80,30.18,29.75,7,2,21,0.91
2013-3-13,53,44,30,51,33,20,97,66,33,29.80,29.70,6,2,16,0.02
2013-3-14,37,31,24,25,16,5,84,54,37,29.85,29.73,7,2,24,0.00
2013-3-15,43,31,20,27,14,5,81,51,22,29.90,29.67,4,1,12,0.00
2013-3-16,41,34,26,28,18,7,80,53,25,29.87,29.70,3,1,10,0.00
2013-3-17,40,31,23,22,13,3,73,49,24,30.31,29.87,8,2,23,0.00
2013-3-18,40,29,18,24,11,2,73,48,27,30.48,30.24,3,1,9,0.00
2013-3-19,39,34,29,38,32,25,96,94,75,30.23,29.55,9,3,20,0.84
2013-3-20,42,33,24,29,21,17,92,64,39,29.83,29.68,8,2,18,0.00
2013-3-21,37,31,22,29,24,20,95,79,54,29.84,29.61,6,1,12,0.00
2013-3-22,43,34,27,29,20,15,95,59,35,29.77,29.61,6,2,17,0.02
2013-3-23,44,36,28,24,20,16,76,53,34,29.81,29.67,8,3,24,0.00
2013-3-24,50,38,28,27,23,18,83,56,34,29.84,29.72,7,2,14,0.00
2013-3-25,47,37,27,34,28,24,92,73,45,29.77,29.49,8,3,28,0.01
2013-3-26,48,39,32,33,27,21,94,65,39,29.79,29.49,10,2,20,0.04
2013-3-27,54,42,25,30,23,20,85,50,28,29.87,29.75,6,2,16,0.00
2013-3-28,48,42,37,35,32,28,91,70,46,30.03,29.86,7,2,15,0.00
2013-3-29,58,47,35,35,31,27,86,58,32,30.06,29.97,8,1,17,0.00
2013-3-30,58,47,32,32,26,14,80,48,18,30.11,30.01,6,2,19,0.00
2013-3-31,60,44,25,44,29,21,93,60,26,30.13,29.74,6,2,19,0.14
2013-4-1,60,48,36,46,39,12,96,73,35,29.82,29.54,8,3,20,0.20
2013-4-2,42,35,26,18,13,7,66,42,26,29.99,29.82,7,2,19,0.00
2013-4-3,46,37,30,17,13,10,52,38,24,30.19,29.97,8,4,22,0.00
2013-4-4,53,40,28,32,21,12,80,49,23,30.33,30.09,5,2,16,0.00
2013-4-5,61,47,38,38,30,19,80,56,22,30.09,29.64,5,2,18,0.00
2013-4-6,49,39,29,26,15,1,84,41,15,30.34,29.88,8,2,20,0.00
2013-4-7,53,41,24,42,31,16,93,72,26,30.35,30.05,8,3,29,0.00
2013-4-8,70,54,42,46,42,37,96,67,31,30.12,29.98,5,2,13,0.00
2013-4-9,76,58,47,55,45,39,95,66,31,30.10,29.85,6,2,22,0.00
2013-4-10,68,54,45,50,46,42,95,76,51,30.03,29.86,5,1,10,0.36
2013-4-11,55,49,45,47,42,32,97,79,55,30.14,29.82,7,2,16,0.01
2013-4-12,45,41,38,38,35,29,95,81,59,30.16,29.75,7,3,19,0.48
2013-4-13,56,44,38,41,37,34,94,79,47,29.95,29.72,9,3,21,0.01
2013-4-14,56,45,35,41,33,24,97,66,36,30.22,29.94,6,2,16,0.00
2013-4-15,59,45,30,37,32,26,90,64,36,30.42,30.22,3,1,9,0.00
2013-4-16,60,49,32,49,41,31,97,77,51,30.42,30.12,7,3,24,0.00
2013-4-17,70,58,41,53,42,28,92,62,22,30.33,30.09,6,2,16,0.01
2013-4-18,64,50,34,48,36,27,97,64,30,30.42,30.17,5,2,16,0.00
2013-4-19,70,60,53,62,58,48,97,91,74,30.17,29.73,8,3,27,0.10
2013-4-20,62,54,46,61,44,28,98,71,38,30.22,29.65,8,2,27,0.71
2013-4-21,56,43,29,31,24,19,83,50,26,30.68,30.22,7,2,16,0.00
2013-4-22,53,42,29,36,31,26,95,68,36,30.74,30.58,6,2,23,0.00
2013-4-23,43,42,39,42,39,33,96,91,75,30.58,30.07,10,5,22,0.05
2013-4-24,71,52,42,52,45,41,96,80,45,30.07,29.85,10,4,22,0.00
2013-4-25,67,54,40,51,38,22,95,59,22,30.26,29.89,5,2,14,0.08
2013-4-26,68,52,37,42,36,25,87,57,28,30.42,30.26,5,1,15,0.00
2013-4-27,66,50,34,45,37,33,97,66,31,30.42,30.32,4,1,11,0.00
2013-4-28,69,53,34,45,36,24,97,59,27,30.36,30.26,4,1,13,0.00
2013-4-29,68,53,41,49,36,16,97,61,17,30.30,30.24,4,1,12,0.00
2013-4-30,72,53,34,41,32,19,96,55,16,30.37,30.27,3,1,10,0.00
2013-5-1,70,53,33,44,37,31,94,62,27,30.48,30.37,5,1,13,0.00
2013-5-2,79,56,37,51,41,36,98,65,24,30.48,30.35,5,1,13,0.00
2013-5-3,59,48,37,45,41,35,97,76,59,30.50,30.37,8,3,20,0.00
2013-5-4,60,47,35,45,38,34,97,73,40,30.37,30.30,7,2,19,0.00
2013-5-5,64,48,34,44,39,32,97,74,46,30.33,30.25,7,2,20,0.00
2013-5-6,74,55,38,51,46,37,96,75,41,30.31,30.16,3,1,11,0.00
2013-5-7,79,61,44,60,52,44,98,76,47,30.20,30.12,4,1,13,0.00
2013-5-8,75,63,51,63,58,50,98,85,58,30.19,30.05,4,1,14,0.26
2013-5-9,71,62,56,63,59,55,98,91,68,30.05,29.88,2,0,11,0.18
2013-5-10,84,66,53,61,56,52,98,73,38,29.97,29.90,3,1,11,0.00
2013-5-11,70,61,57,61,59,54,98,91,70,29.95,29.72,4,1,13,0.23
2013-5-12,73,61,44,62,54,37,98,81,49,29.83,29.58,4,1,15,0.05
2013-5-13,63,50,33,38,32,27,96,55,30,30.03,29.83,3,1,13,0.00
2013-5-14,60,49,34,37,32,26,90,54,31,30.06,29.98,7,1,15,0.00
2013-5-15,65,52,32,54,42,30,97,72,33,30.07,29.70,5,1,16,0.01
2013-5-16,84,65,46,55,48,37,98,63,21,29.80,29.66,4,1,13,0.00
2013-5-17,71,58,44,50,44,38,93,63,34,30.23,29.80,7,2,16,0.00
2013-5-18,74,57,38,52,45,37,98,68,31,30.32,30.23,3,0,11,0.00
2013-5-19,74,58,44,54,50,43,98,78,41,30.36,30.24,3,1,13,0.13
2013-5-20,86,68,55,68,62,54,98,83,53,30.24,29.92,3,0,8,0.07
2013-5-21,89,67,52,72,61,51,98,85,52,29.99,29.84,5,2,14,0.92
2013-5-22,75,62,51,67,58,50,98,89,72,30.02,29.88,6,1,15,0.02
2013-5-23,77,66,61,69,64,60,98,92,74,29.93,29.84,5,2,14,0.07
2013-5-24,71,63,50,67,61,49,98,95,83,29.84,29.67,5,1,13,0.99
2013-5-25,53,49,41,51,47,39,98,95,91,29.80,29.70,5,2,14,0.25
2013-5-26,61,50,40,43,40,38,95,71,44,30.13,29.75,6,2,20,0.01
2013-5-27,74,57,38,47,40,34,98,60,25,30.17,30.08,5,1,17,0.00
2013-5-28,79,60,40,57,48,39,98,69,28,30.24,30.17,2,0,8,0.00
2013-5-29,78,65,58,66,61,56,97,88,66,30.21,30.01,3,1,11,0.99
2013-5-30,91,76,62,73,68,61,99,77,49,30.10,30.01,3,0,11,0.23
2013-5-31,97,79,61,72,67,60,98,69,42,30.09,29.96,3,0,10,0.00
2013-6-1,91,76,63,72,66,61,96,73,48,30.00,29.89,4,1,15,0.00
2013-6-2,85,71,64,70,65,62,95,80,57,29.92,29.81,4,2,16,0.00
2013-6-3,74,67,63,70,65,62,98,94,85,29.86,29.79,2,0,9,0.88
2013-6-4,74,62,49,64,47,42,98,60,37,30.08,29.82,5,1,15,0.00
2013-6-5,78,61,44,53,48,43,98,68,32,30.20,30.08,4,1,9,0.00
2013-6-6,78,63,49,60,52,45,98,72,38,30.20,30.10,2,0,12,0.00
2013-6-7,61,58,55,60,56,53,98,95,84,30.10,29.78,6,1,15,3.13
2013-6-8,82,65,55,67,60,55,99,85,58,30.01,29.58,6,2,15,1.28
2013-6-9,84,69,54,61,57,53,99,71,39,30.17,30.01,4,1,11,0.00
2013-6-10,73,62,53,65,59,52,99,89,64,30.20,30.00,2,0,8,1.09
2013-6-11,77,64,56,68,62,55,99,94,71,29.99,29.53,7,1,22,1.25
2013-6-12,72,63,55,58,55,53,99,77,53,29.81,29.57,6,2,19,0.00
2013-6-13,67,58,49,61,55,48,98,91,75,29.83,29.63,5,1,13,0.30
2013-6-14,73,59,53,61,54,49,97,83,54,29.77,29.59,9,4,21,1.33
2013-6-15,82,68,54,56,50,41,95,59,29,29.95,29.77,6,1,15,0.00
2013-6-16,81,66,52,63,57,50,97,75,41,29.96,29.75,3,1,10,0.00
2013-6-17,88,71,56,68,62,56,99,76,41,29.92,29.80,7,1,18,0.01
2013-6-18,86,65,57,66,60,56,99,85,45,29.94,29.85,9,1,18,0.14
2013-6-19,76,64,55,59,54,48,97,74,39,30.16,29.88,6,2,16,0.04
2013-6-20,84,66,50,59,54,48,99,69,32,30.27,30.16,3,1,11,0.00
2013-6-21,85,70,56,66,60,54,94,71,50,30.28,30.20,3,1,12,0.00
2013-6-22,86,71,60,66,59,52,94,69,46,30.24,30.15,3,1,12,0.00
2013-6-23,90,75,63,72,67,61,96,78,53,30.19,30.04,4,1,12,0.00
2013-6-24,97,81,69,76,71,66,98,74,46,30.05,29.88,4,1,13,0.00
2013-6-25,94,79,67,73,69,65,95,74,46,29.94,29.75,3,1,9,0.00
2013-6-26,91,78,69,74,71,67,97,81,50,29.85,29.73,3,1,9,0.04
2013-6-27,73,68,65,70,66,64,98,95,89,29.86,29.75,3,1,9,0.02
2013-6-28,77,71,65,74,70,65,99,96,86,29.75,29.53,4,1,15,1.03
2013-6-29,82,74,70,73,70,68,99,90,65,29.75,29.53,4,1,16,0.02
2013-6-30,82,73,70,75,70,69,98,91,73,29.95,29.74,3,1,13,0.22
2013-7-1,77,72,70,75,71,70,99,97,91,30.10,29.95,2,1,8,0.02
2013-7-2,85,76,71,76,73,70,98,90,73,30.20,30.09,3,1,11,0.00
2013-7-3,91,78,69,77,73,69,99,85,60,30.23,30.16,3,1,12,0.00
2013-7-4,95,82,70,79,75,70,99,80,55,30.22,30.11,3,1,10,0.00
2013-7-5,96,83,71,80,74,70,98,77,54,30.17,30.06,3,1,11,0.00
2013-7-6,95,83,71,78,74,70,98,77,51,30.09,29.98,3,1,10,0.00
2013-7-7,95,81,71,80,74,70,98,81,52,30.02,29.91,3,0,9,0.08
2013-7-8,93,80,68,76,72,67,99,80,49,30.05,29.92,5,1,10,0.01
2013-7-9,82,72,66,73,69,66,98,90,73,30.10,30.03,4,1,9,0.00
2013-7-10,86,76,70,78,72,68,97,91,70,30.07,29.81,4,1,13,0.43
2013-7-11,81,75,70,76,73,70,99,93,79,29.91,29.79,4,0,10,0.71
2013-7-12,74,70,66,70,66,62,99,86,69,30.18,29.91,7,3,15,0.00
2013-7-13,82,72,66,75,70,64,98,94,77,30.30,30.18,3,1,8,0.12
2013-7-14,92,80,72,77,74,71,99,82,54,30.31,30.19,6,0,15,0.00
2013-7-15,94,82,71,78,73,70,99,78,50,30.20,30.09,5,1,10,0.00
2013-7-16,94,82,71,77,71,68,97,72,45,30.16,30.09,5,1,10,0.00
2013-7-17,96,81,69,76,72,68,98,75,50,30.18,30.03,3,1,11,0.00
2013-7-18,97,84,72,79,74,70,94,75,48,30.03,29.95,3,1,9,0.00
2013-7-19,100,85,73,81,76,72,98,78,48,29.96,29.75,3,1,11,0.00
2013-7-20,96,82,71,80,76,70,98,83,53,29.81,29.65,3,1,11,0.81
2013-7-21,89,76,68,73,70,67,99,83,51,29.99,29.81,2,0,6,0.01
2013-7-22,89,76,65,73,69,65,99,81,54,30.00,29.88,2,1,8,0.00
2013-7-23,88,77,71,78,73,70,98,89,71,29.88,29.54,4,1,14,0.29
2013-7-24,88,78,71,74,70,62,98,79,58,29.92,29.58,4,1,10,0.00
2013-7-25,73,63,60,62,58,52,97,84,66,30.07,29.92,6,4,16,0.17
2013-7-26,71,65,62,68,63,60,99,96,86,30.03,29.92,8,2,15,0.39
2013-7-27,86,70,62,71,66,61,100,88,51,30.07,30.01,3,0,8,0.00
2013-7-28,87,73,66,74,69,65,99,89,63,30.01,29.96,3,1,7,0.08
2013-7-29,87,75,66,75,71,66,99,87,64,30.04,29.98,3,1,11,0.00
2013-7-30,84,72,60,68,61,58,98,71,45,30.10,30.03,3,1,11,0.00
2013-7-31,87,71,57,66,62,56,99,76,41,30.13,30.05,4,0,9,0.00
2013-8-1,85,70,60,69,63,60,99,81,50,30.06,29.89,3,0,9,0.06
2013-8-2,86,72,63,70,65,62,99,80,47,29.89,29.80,3,0,12,0.38
2013-8-3,81,71,65,69,66,63,98,84,63,29.88,29.80,2,0,8,0.00
2013-8-4,82,68,56,64,59,54,97,75,41,29.89,29.77,4,1,15,0.08
2013-8-5,78,64,52,57,52,44,96,68,31,30.05,29.89,6,1,18,0.00
2013-8-6,83,65,46,58,52,46,99,67,32,30.16,30.05,2,0,8,0.00
2013-8-7,82,68,54,66,57,51,99,73,35,30.19,30.14,2,0,10,0.00
2013-8-8,83,72,61,72,67,58,94,84,69,30.14,30.03,3,1,14,0.00
2013-8-9,74,73,72,74,72,70,99,96,91,30.06,29.78,4,1,14,2.07
2013-8-10,85,74,62,73,64,53,99,72,43,30.01,29.80,4,1,12,0.01
2013-8-11,82,68,52,62,56,50,99,70,39,30.09,30.01,4,1,11,0.00
2013-8-12,86,71,59,69,63,58,99,80,42,30.05,29.93,2,0,7,0.00
2013-8-13,76,67,61,70,65,60,99,93,70,29.94,29.70,1,0,6,0.03
2013-8-14,74,66,56,64,57,52,99,73,49,29.97,29.67,5,1,16,0.00
2013-8-15,80,66,54,61,54,46,95,70,36,30.13,29.97,3,1,9,0.00
2013-8-16,82,66,51,62,56,50,99,73,37,30.20,30.12,2,0,9,0.00
2013-8-17,82,67,52,65,59,51,99,77,46,30.28,30.20,3,1,9,0.00
2013-8-18,84,68,56,65,60,55,99,81,40,30.28,30.10,2,0,6,0.01
2013-8-19,83,69,54,66,61,54,99,78,48,30.10,29.97,3,0,10,0.00
2013-8-20,90,74,60,69,64,59,99,75,37,30.10,29.98,2,0,9,0.00
2013-8-21,92,74,58,70,65,58,99,76,41,30.15,30.04,2,0,8,0.00
2013-8-22,87,73,64,75,69,63,99,89,66,30.05,29.84,2,0,10,0.11
2013-8-23,80,70,57,70,62,55,99,78,49,30.10,29.82,7,1,16,0.00
2013-8-24,76,63,50,56,51,41,97,68,31,30.34,30.10,6,2,15,0.00
2013-8-25,85,65,46,60,54,46,99,71,33,30.37,30.21,3,0,10,0.00
2013-8-26,82,71,60,69,64,57,95,80,57,30.22,29.90,2,0,9,0.02
2013-8-27,81,71,63,72,68,62,98,91,67,29.90,29.83,5,1,10,0.78
2013-8-28,87,71,59,73,66,59,99,85,53,29.96,29.85,4,1,11,0.01
2013-8-29,67,64,59,65,62,58,98,95,91,30.06,29.95,5,2,14,0.00
2013-8-30,83,68,57,71,64,56,98,87,64,30.03,29.85,2,0,11,0.00
2013-8-31,81,74,68,74,71,67,99,92,78,29.86,29.81,2,1,10,0.00
2013-9-1,84,74,69,77,72,69,99,94,78,29.90,29.82,2,0,9,0.23
2013-9-2,82,74,70,77,73,69,99,95,81,29.88,29.72,2,0,9,0.81
2013-9-3,84,72,63,74,70,62,99,93,67,29.82,29.69,2,0,10,0.08
2013-9-4,82,68,58,63,60,57,98,78,45,29.93,29.82,3,1,10,0.00
2013-9-5,72,62,50,65,59,50,99,89,69,30.14,29.88,6,1,14,0.08
2013-9-6,68,55,43,53,47,41,99,77,40,30.25,30.11,4,1,9,0.00
2013-9-7,80,62,45,59,52,45,99,74,40,30.11,29.89,3,0,10,0.01
2013-9-8,77,66,49,65,56,43,98,73,44,30.09,29.76,7,2,18,0.00
2013-9-9,72,56,40,52,47,40,98,75,37,30.25,30.09,2,0,9,0.00
2013-9-10,76,66,51,70,63,50,98,89,78,30.18,30.05,4,1,13,0.02
2013-9-11,96,78,67,80,72,67,99,85,58,30.09,29.97,2,1,9,0.00
2013-9-12,84,74,69,74,71,68,98,89,72,29.99,29.70,4,1,14,0.30
2013-9-13,82,70,60,71,67,57,99,89,62,29.75,29.57,4,0,10,0.13
2013-9-14,69,61,51,57,55,50,97,81,63,30.06,29.75,4,1,11,0.00
2013-9-15,74,58,43,57,51,42,99,82,50,30.18,30.06,2,0,7,0.00
2013-9-16,67,57,49,59,53,42,99,88,66,30.23,30.03,5,1,16,0.04
2013-9-17,60,50,40,45,40,34,97,71,38,30.42,30.23,8,2,17,0.00
2013-9-18,75,54,35,52,44,35,99,74,33,30.34,30.16,2,0,7,0.00
2013-9-19,82,60,43,59,52,42,99,78,41,30.17,30.05,3,0,6,0.00
2013-9-20,83,62,46,60,54,46,99,79,40,30.09,30.01,2,0,6,0.01
2013-9-21,78,65,54,67,61,53,99,86,62,30.04,29.75,3,1,13,0.00
2013-9-22,73,66,50,68,59,47,97,81,56,29.83,29.63,4,1,15,0.47
2013-9-23,65,53,44,49,44,41,91,73,48,30.01,29.83,5,2,17,0.00
2013-9-24,68,53,40,51,44,38,95,76,45,30.01,29.82,4,1,12,0.00
2013-9-25,68,55,42,52,48,41,98,78,53,29.98,29.88,7,1,16,0.00
2013-9-26,66,56,48,51,50,46,96,79,56,30.12,29.98,5,1,11,0.00
2013-9-27,66,57,44,55,51,44,97,83,63,30.26,30.11,6,2,15,0.00
2013-9-28,74,55,40,58,49,40,99,83,51,30.33,30.25,5,1,12,0.00
2013-9-29,71,55,41,56,48,41,99,83,37,30.27,30.12,3,1,9,0.01
2013-9-30,70,56,43,57,51,42,99,84,53,30.12,29.97,5,1,9,0.00
2013-10-1,77,57,40,58,49,39,99,80,40,29.98,29.85,6,1,16,0.00
2013-10-2,81,64,47,63,56,46,99,80,50,29.97,29.84,4,1,13,0.00
2013-10-3,82,62,48,57,53,47,99,75,33,30.09,29.97,3,0,7,0.01
2013-10-4,66,55,46,58,53,46,99,95,63,30.09,30.04,3,0,10,0.31
2013-10-5,70,62,56,62,58,56,99,90,74,30.13,30.06,3,0,7,0.04
2013-10-6,62,59,57,60,57,54,98,93,84,30.21,30.11,3,0,7,0.07
2013-10-7,78,69,58,71,66,57,99,92,79,30.12,29.85,5,2,22,0.07
2013-10-8,67,57,44,61,48,43,96,74,44,30.36,29.91,6,1,15,0.00
2013-10-9,63,51,42,49,45,40,98,81,52,30.44,30.35,6,1,17,0.00
2013-10-10,65,55,44,56,51,43,98,89,71,30.35,30.15,6,2,13,0.00
2013-10-11,67,58,48,58,54,47,97,85,69,30.15,30.09,5,2,13,0.00
2013-10-12,65,56,49,58,53,48,98,89,75,30.37,30.13,7,2,18,0.00
2013-10-13,61,51,37,51,46,37,98,85,65,30.43,30.35,5,1,14,0.00
2013-10-14,66,47,30,51,42,30,99,84,46,30.42,30.26,2,0,6,0.01
2013-10-15,72,54,39,53,47,38,99,80,46,30.28,30.18,3,0,7,0.00
2013-10-16,64,54,44,58,52,44,99,93,80,30.18,29.92,4,1,9,0.00
2013-10-17,70,61,51,62,58,51,99,92,74,29.93,29.75,2,0,8,0.01
2013-10-18,69,61,44,63,52,42,97,76,47,29.93,29.64,5,1,13,0.01
2013-10-19,66,52,37,51,44,36,98,77,43,30.00,29.77,2,0,9,0.00
2013-10-20,63,53,37,53,42,32,98,70,34,30.04,29.71,4,1,14,0.01
2013-10-21,68,48,31,46,39,30,98,75,35,30.13,30.02,3,0,8,0.00
2013-10-22,70,52,37,56,47,36,99,83,52,30.02,29.72,3,0,10,0.00
2013-10-23,52,43,34,42,38,33,97,83,52,29.81,29.61,2,0,7,0.01
2013-10-24,53,43,34,37,31,25,94,65,36,29.92,29.65,4,1,16,0.00
2013-10-25,50,40,30,35,29,27,91,68,46,30.18,29.92,5,1,12,0.00
2013-10-26,56,42,26,39,32,25,97,72,38,30.18,29.90,4,1,18,0.00
2013-10-27,58,47,36,42,36,30,97,68,42,30.09,29.84,4,1,14,0.02
2013-10-28,60,44,27,38,32,26,97,66,38,30.35,30.09,5,1,14,0.00
2013-10-29,50,38,28,33,27,25,96,67,39,30.44,30.35,4,1,14,0.00
2013-10-30,54,41,28,46,38,27,96,90,71,30.39,30.21,1,0,6,0.01
2013-10-31,64,52,33,61,50,32,99,93,82,30.25,29.81,6,1,13,0.08
2013-11-1,69,64,59,65,60,55,97,89,78,29.83,29.52,7,2,22,0.16
2013-11-2,67,57,50,55,49,43,95,77,43,29.73,29.59,2,0,5,0.00
2013-11-3,51,42,33,46,35,17,95,77,47,30.40,29.72,7,2,14,0.00
2013-11-4,42,33,22,28,22,18,94,65,45,30.72,30.40,6,2,15,0.00
2013-11-5,50,35,21,32,27,20,96,76,39,30.72,30.54,1,0,5,0.00
2013-11-6,59,47,32,52,43,31,98,85,61,30.54,30.08,4,1,14,0.00
2013-11-7,65,55,39,62,53,36,98,93,77,30.08,29.68,5,1,14,0.51
2013-11-8,49,39,29,37,29,22,95,68,40,30.12,29.84,6,2,18,0.00
2013-11-9,45,36,28,32,26,22,88,69,42,30.23,30.06,5,1,12,0.00
2013-11-10,56,44,37,47,38,32,97,80,56,30.06,29.73,6,0,17,0.07
2013-11-11,52,46,38,41,31,26,79,58,39,30.12,29.89,6,2,22,0.00
2013-11-12,50,37,28,40,28,16,94,69,56,30.19,29.89,4,1,13,0.10
2013-11-13,36,28,22,17,15,12,76,58,38,30.29,30.19,3,1,12,0.00
2013-11-14,51,38,23,30,23,16,75,55,32,30.21,30.07,5,1,15,0.00
2013-11-15,59,45,30,44,31,18,96,62,30,30.23,30.15,3,1,12,0.00
2013-11-16,60,45,33,40,37,32,97,76,43,30.33,30.21,3,0,9,0.00
2013-11-17,62,48,32,59,46,31,99,93,70,30.33,29.86,3,0,7,0.16
2013-11-18,66,59,46,64,51,34,99,78,51,29.85,29.56,6,2,21,0.41
2013-11-19,49,41,30,34,24,19,65,52,40,30.28,29.68,7,2,18,0.00
2013-11-20,41,30,20,20,16,12,84,57,31,30.62,30.28,5,1,14,0.00
2013-11-21,48,33,18,32,23,15,92,71,41,30.65,30.40,2,0,9,0.00
2013-11-22,52,45,38,51,44,32,98,94,81,30.40,29.83,2,0,6,0.22
2013-11-23,50,42,30,47,28,14,97,59,30,29.91,29.80,6,3,20,0.00
2013-11-24,30,24,21,18,5,-6,61,43,23,30.22,29.81,6,3,22,0.00
2013-11-25,34,24,13,24,5,-6,74,46,20,30.39,30.22,3,1,8,0.00
2013-11-26,44,38,32,42,28,18,98,68,45,30.34,30.03,2,0,6,0.21
2013-11-27,62,53,38,62,52,34,99,96,85,30.03,29.21,9,3,31,2.87
2013-11-28,37,31,21,34,18,8,87,60,39,30.46,29.50,6,2,17,0.00
2013-11-29,35,26,18,19,15,6,83,62,42,30.74,30.45,3,1,10,0.00
2013-11-30,36,25,14,24,16,8,84,70,44,30.79,30.45,2,0,6,0.00
2013-12-1,46,38,28,45,36,24,98,94,84,30.45,30.00,3,0,10,0.49
2013-12-2,41,38,36,40,37,36,98,96,93,30.00,29.92,2,0,6,0.00
2013-12-3,48,39,35,39,35,32,98,87,61,29.96,29.85,4,1,11,0.00
2013-12-4,47,35,28,33,30,27,97,84,56,30.21,29.96,3,0,8,0.00
2013-12-5,55,44,29,54,43,28,99,95,89,30.21,29.94,4,0,13,0.01
2013-12-6,56,50,38,56,49,37,99,95,87,30.12,29.88,4,1,12,0.41
2013-12-7,41,34,25,37,30,23,97,86,65,30.47,30.07,4,1,12,0.19
2013-12-8,31,27,18,24,19,16,93,73,55,30.61,30.46,2,0,6,0.00
2013-12-9,40,35,28,40,34,20,98,95,67,30.49,29.89,3,1,11,0.24
2013-12-10,34,31,24,33,30,21,99,95,83,30.03,29.79,2,0,7,0.00
2013-12-11,32,25,19,23,20,18,96,81,64,30.26,30.03,2,0,7,0.00
2013-12-12,25,19,8,18,10,3,90,69,40,30.30,30.10,3,0,11,0.00
2013-12-13,31,22,8,18,12,5,91,67,47,30.37,30.03,3,1,13,0.00
2013-12-14,29,18,13,28,10,-2,96,72,47,30.60,30.11,3,1,9,0.00
2013-12-15,38,30,21,38,28,19,98,92,78,30.11,29.37,6,2,13,0.06
2013-12-16,29,22,11,22,13,7,96,68,40,30.23,29.78,5,1,14,0.00
2013-12-17,26,16,4,25,13,1,95,88,75,30.29,29.92,3,1,10,0.00
2013-12-18,35,26,18,23,20,16,92,78,53,30.12,29.84,5,1,12,0.00
2013-12-19,46,34,22,30,25,19,87,72,51,30.14,29.98,4,1,12,0.09
2013-12-20,53,40,28,43,34,26,95,82,63,30.14,29.95,4,1,14,0.01
2013-12-21,58,49,41,51,47,40,99,91,76,30.01,29.90,4,1,13,0.00
2013-12-22,61,54,41,59,53,40,96,94,82,30.01,29.79,6,2,18,0.00
2013-12-23,41,38,35,40,38,34,99,98,96,30.08,29.94,5,1,11,0.78
2013-12-24,40,33,28,39,26,18,98,73,50,30.21,30.04,4,2,12,0.01
2013-12-25,28,19,12,18,7,3,86,59,44,30.56,30.21,4,1,12,0.00
2013-12-26,38,28,14,37,25,10,96,90,81,30.51,30.08,3,0,11,0.13
2013-12-27,36,27,21,24,21,19,96,78,51,30.30,30.22,4,0,13,0.00
2013-12-28,49,33,21,33,26,19,97,76,44,30.25,30.01,3,0,11,0.00
2013-12-29,46,38,28,42,36,26,98,92,70,30.05,29.34,9,1,17,1.22
2013-12-30,40,33,20,37,26,12,99,78,50,30.16,29.51,5,1,16,0.00
2013-12-31,27,19,15,14,9,0,89,65,46,30.21,30.04,2,0,7,0.00
2014-1-1,29,21,11,15,10,6,87,64,44,30.40,30.21,3,0,10,0.00
2014-1-2,28,22,9,27,20,7,95,90,63,30.36,29.75,6,2,17,0.00